sensor_id;sensor_type;location;lat;lon;timestamp;P1;durP1;ratioP1;P2;durP2;ratioP2
76727;SDS011;65652;53.132;18.026;2023-03-20T00:01:16;55.00;;;23.80;;
76727;SDS011;65652;53.132;18.026;2023-03-20T00:03:45;52.80;;;25.60;;
76727;SDS011;65652;53.132;18.026;2023-03-20T00:06:16;49.10;;;23.80;;
76727;SDS011;65652;53.132;18.026;2023-03-20T00:08:44;52.20;;;24.80;;
76727;SDS011;65652;53.132;18.026;2023-03-20T00:13:48;52.80;;;24.60;;
76727;SDS011;65652;53.132;18.026;2023-03-20T00:16:16;53.40;;;25.80;;
76727;SDS011;65652;53.132;18.026;2023-03-20T00:18:42;48.90;;;24.80;;
76727;SDS011;65652;53.132;18.026;2023-03-20T00:21:19;55.20;;;24.80;;
76727;SDS011;65652;53.132;18.026;2023-03-20T00:23:46;55.20;;;27.60;;
76727;SDS011;65652;53.132;18.026;2023-03-20T00:26:17;55.90;;;28.10;;
76727;SDS011;65652;53.132;18.026;2023-03-20T00:28:45;55.60;;;27.40;;
76727;SDS011;65652;53.132;18.026;2023-03-20T00:36:15;51.20;;;26.70;;
76727;SDS011;65652;53.132;18.026;2023-03-20T00:38:42;60.00;;;27.60;;
76727;SDS011;65652;53.132;18.026;2023-03-20T00:41:28;57.30;;;27.50;;
76727;SDS011;65652;53.132;18.026;2023-03-20T00:46:56;57.10;;;27.30;;
76727;SDS011;65652;53.132;18.026;2023-03-20T00:49:26;57.70;;;28.10;;
76727;SDS011;65652;53.132;18.026;2023-03-20T00:51:56;55.50;;;26.90;;
76727;SDS011;65652;53.132;18.026;2023-03-20T00:54:24;56.30;;;27.10;;
76727;SDS011;65652;53.132;18.026;2023-03-20T00:56:55;57.90;;;28.20;;
76727;SDS011;65652;53.132;18.026;2023-03-20T00:59:28;55.20;;;26.90;;
76727;SDS011;65652;53.132;18.026;2023-03-20T01:01:59;55.60;;;28.70;;
76727;SDS011;65652;53.132;18.026;2023-03-20T01:04:31;57.90;;;27.50;;
76727;SDS011;65652;53.132;18.026;2023-03-20T01:07:01;56.00;;;28.30;;
76727;SDS011;65652;53.132;18.026;2023-03-20T01:09:29;55.00;;;27.60;;
76727;SDS011;65652;53.132;18.026;2023-03-20T01:11:57;59.70;;;28.10;;
76727;SDS011;65652;53.132;18.026;2023-03-20T01:14:25;56.50;;;29.70;;
76727;SDS011;65652;53.132;18.026;2023-03-20T01:16:52;57.70;;;28.10;;
76727;SDS011;65652;53.132;18.026;2023-03-20T01:19:19;54.90;;;27.60;;
76727;SDS011;65652;53.132;18.026;2023-03-20T01:21:46;57.20;;;28.40;;
76727;SDS011;65652;53.132;18.026;2023-03-20T01:24:13;62.00;;;29.90;;
76727;SDS011;65652;53.132;18.026;2023-03-20T01:26:42;57.10;;;28.00;;
76727;SDS011;65652;53.132;18.026;2023-03-20T01:29:20;56.20;;;28.30;;
76727;SDS011;65652;53.132;18.026;2023-03-20T01:31:49;55.00;;;27.90;;
76727;SDS011;65652;53.132;18.026;2023-03-20T01:34:18;56.00;;;29.70;;
76727;SDS011;65652;53.132;18.026;2023-03-20T01:36:56;61.80;;;28.40;;
76727;SDS011;65652;53.132;18.026;2023-03-20T01:39:30;58.90;;;29.00;;
76727;SDS011;65652;53.132;18.026;2023-03-20T01:42:01;61.60;;;29.80;;
76727;SDS011;65652;53.132;18.026;2023-03-20T01:44:30;60.70;;;28.70;;
76727;SDS011;65652;53.132;18.026;2023-03-20T01:46:59;54.70;;;26.20;;
76727;SDS011;65652;53.132;18.026;2023-03-20T01:51:58;54.20;;;26.40;;
76727;SDS011;65652;53.132;18.026;2023-03-20T01:54:31;46.90;;;24.40;;
76727;SDS011;65652;53.132;18.026;2023-03-20T01:57:04;52.70;;;23.20;;
76727;SDS011;65652;53.132;18.026;2023-03-20T01:59:38;51.00;;;24.00;;
76727;SDS011;65652;53.132;18.026;2023-03-20T02:02:13;63.30;;;27.40;;
76727;SDS011;65652;53.132;18.026;2023-03-20T02:04:44;51.20;;;27.00;;
76727;SDS011;65652;53.132;18.026;2023-03-20T02:07:15;60.20;;;28.20;;
76727;SDS011;65652;53.132;18.026;2023-03-20T02:09:58;60.00;;;28.50;;
76727;SDS011;65652;53.132;18.026;2023-03-20T02:12:37;65.30;;;29.10;;
76727;SDS011;65652;53.132;18.026;2023-03-20T02:17:52;64.20;;;30.20;;
76727;SDS011;65652;53.132;18.026;2023-03-20T02:38:57;75.80;;;34.70;;
76727;SDS011;65652;53.132;18.026;2023-03-20T02:49:32;69.70;;;34.80;;
76727;SDS011;65652;53.132;18.026;2023-03-20T02:54:40;74.30;;;35.50;;
76727;SDS011;65652;53.132;18.026;2023-03-20T03:00:07;74.00;;;35.70;;
76727;SDS011;65652;53.132;18.026;2023-03-20T03:05:26;80.10;;;36.50;;
76727;SDS011;65652;53.132;18.026;2023-03-20T03:08:07;78.10;;;38.20;;
76727;SDS011;65652;53.132;18.026;2023-03-20T03:10:43;79.70;;;37.30;;
76727;SDS011;65652;53.132;18.026;2023-03-20T03:13:14;79.90;;;37.10;;
76727;SDS011;65652;53.132;18.026;2023-03-20T03:15:46;87.20;;;37.60;;
76727;SDS011;65652;53.132;18.026;2023-03-20T03:18:18;85.20;;;39.40;;
76727;SDS011;65652;53.132;18.026;2023-03-20T03:20:49;92.60;;;40.00;;
76727;SDS011;65652;53.132;18.026;2023-03-20T03:26:00;84.20;;;37.60;;
76727;SDS011;65652;53.132;18.026;2023-03-20T03:28:42;87.70;;;40.90;;
76727;SDS011;65652;53.132;18.026;2023-03-20T03:31:15;90.60;;;40.30;;
76727;SDS011;65652;53.132;18.026;2023-03-20T03:33:44;86.30;;;38.40;;
76727;SDS011;65652;53.132;18.026;2023-03-20T03:42:02;95.80;;;40.30;;
76727;SDS011;65652;53.132;18.026;2023-03-20T03:50:02;97.80;;;42.90;;
76727;SDS011;65652;53.132;18.026;2023-03-20T03:52:34;97.60;;;42.70;;
76727;SDS011;65652;53.132;18.026;2023-03-20T03:55:07;98.60;;;43.10;;
76727;SDS011;65652;53.132;18.026;2023-03-20T03:57:59;99.60;;;41.60;;
76727;SDS011;65652;53.132;18.026;2023-03-20T04:00:30;93.00;;;41.40;;
76727;SDS011;65652;53.132;18.026;2023-03-20T04:02:59;96.00;;;40.10;;
76727;SDS011;65652;53.132;18.026;2023-03-20T04:05:27;98.50;;;41.30;;
76727;SDS011;65652;53.132;18.026;2023-03-20T04:07:58;91.30;;;40.10;;
76727;SDS011;65652;53.132;18.026;2023-03-20T04:10:26;86.40;;;38.30;;
76727;SDS011;65652;53.132;18.026;2023-03-20T04:12:53;82.10;;;36.60;;
76727;SDS011;65652;53.132;18.026;2023-03-20T04:15:20;79.90;;;37.50;;
76727;SDS011;65652;53.132;18.026;2023-03-20T04:17:47;96.60;;;39.30;;
76727;SDS011;65652;53.132;18.026;2023-03-20T04:20:15;84.70;;;38.60;;
76727;SDS011;65652;53.132;18.026;2023-03-20T04:22:43;76.50;;;34.70;;
76727;SDS011;65652;53.132;18.026;2023-03-20T04:25:20;65.90;;;32.50;;
76727;SDS011;65652;53.132;18.026;2023-03-20T04:27:53;68.00;;;33.30;;
76727;SDS011;65652;53.132;18.026;2023-03-20T04:30:34;72.70;;;33.20;;
76727;SDS011;65652;53.132;18.026;2023-03-20T04:33:17;75.80;;;33.20;;
76727;SDS011;65652;53.132;18.026;2023-03-20T04:36:04;76.60;;;33.30;;
76727;SDS011;65652;53.132;18.026;2023-03-20T04:38:32;70.80;;;32.20;;
76727;SDS011;65652;53.132;18.026;2023-03-20T04:41:00;66.40;;;31.60;;
76727;SDS011;65652;53.132;18.026;2023-03-20T04:43:27;66.30;;;31.70;;
76727;SDS011;65652;53.132;18.026;2023-03-20T04:45:54;64.20;;;31.20;;
76727;SDS011;65652;53.132;18.026;2023-03-20T04:48:21;63.00;;;29.90;;
76727;SDS011;65652;53.132;18.026;2023-03-20T04:50:48;68.90;;;32.30;;
76727;SDS011;65652;53.132;18.026;2023-03-20T04:53:18;65.00;;;31.80;;
76727;SDS011;65652;53.132;18.026;2023-03-20T04:55:49;72.40;;;30.80;;
76727;SDS011;65652;53.132;18.026;2023-03-20T04:58:16;60.10;;;28.50;;
76727;SDS011;65652;53.132;18.026;2023-03-20T05:00:44;65.00;;;29.90;;
76727;SDS011;65652;53.132;18.026;2023-03-20T05:03:11;52.00;;;24.00;;
76727;SDS011;65652;53.132;18.026;2023-03-20T05:05:39;57.80;;;28.90;;
76727;SDS011;65652;53.132;18.026;2023-03-20T05:08:07;56.30;;;26.60;;
76727;SDS011;65652;53.132;18.026;2023-03-20T05:10:36;57.20;;;27.20;;
76727;SDS011;65652;53.132;18.026;2023-03-20T05:13:17;48.90;;;25.80;;
76727;SDS011;65652;53.132;18.026;2023-03-20T05:15:58;47.60;;;23.30;;
76727;SDS011;65652;53.132;18.026;2023-03-20T05:18:51;51.20;;;23.90;;
76727;SDS011;65652;53.132;18.026;2023-03-20T05:21:44;53.20;;;24.60;;
76727;SDS011;65652;53.132;18.026;2023-03-20T05:24:31;57.10;;;27.10;;
76727;SDS011;65652;53.132;18.026;2023-03-20T05:27:04;51.50;;;27.10;;
76727;SDS011;65652;53.132;18.026;2023-03-20T05:29:49;52.80;;;25.80;;
76727;SDS011;65652;53.132;18.026;2023-03-20T05:32:42;51.10;;;23.60;;
76727;SDS011;65652;53.132;18.026;2023-03-20T05:35:21;55.30;;;25.60;;
76727;SDS011;65652;53.132;18.026;2023-03-20T05:38:08;60.70;;;27.70;;
76727;SDS011;65652;53.132;18.026;2023-03-20T05:41:04;57.00;;;26.50;;
76727;SDS011;65652;53.132;18.026;2023-03-20T05:43:57;54.30;;;26.50;;
76727;SDS011;65652;53.132;18.026;2023-03-20T05:46:44;48.50;;;24.60;;
76727;SDS011;65652;53.132;18.026;2023-03-20T05:49:30;56.10;;;27.00;;
76727;SDS011;65652;53.132;18.026;2023-03-20T05:52:22;54.20;;;26.90;;
76727;SDS011;65652;53.132;18.026;2023-03-20T05:57:51;49.50;;;23.50;;
76727;SDS011;65652;53.132;18.026;2023-03-20T06:00:27;55.30;;;25.30;;
76727;SDS011;65652;53.132;18.026;2023-03-20T06:03:14;52.90;;;27.10;;
76727;SDS011;65652;53.132;18.026;2023-03-20T06:05:56;49.20;;;24.60;;
76727;SDS011;65652;53.132;18.026;2023-03-20T06:08:23;57.70;;;27.60;;
76727;SDS011;65652;53.132;18.026;2023-03-20T06:10:50;52.00;;;27.10;;
76727;SDS011;65652;53.132;18.026;2023-03-20T06:13:18;52.70;;;28.00;;
76727;SDS011;65652;53.132;18.026;2023-03-20T06:15:45;52.10;;;25.70;;
76727;SDS011;65652;53.132;18.026;2023-03-20T06:18:15;51.50;;;26.50;;
76727;SDS011;65652;53.132;18.026;2023-03-20T06:20:42;52.20;;;28.10;;
76727;SDS011;65652;53.132;18.026;2023-03-20T06:23:09;51.40;;;26.50;;
76727;SDS011;65652;53.132;18.026;2023-03-20T06:25:36;55.60;;;27.20;;
76727;SDS011;65652;53.132;18.026;2023-03-20T06:28:04;52.50;;;26.50;;
76727;SDS011;65652;53.132;18.026;2023-03-20T06:30:31;47.60;;;25.50;;
76727;SDS011;65652;53.132;18.026;2023-03-20T06:32:58;46.20;;;23.10;;
76727;SDS011;65652;53.132;18.026;2023-03-20T06:35:31;52.40;;;25.70;;
76727;SDS011;65652;53.132;18.026;2023-03-20T06:37:59;46.20;;;22.80;;
76727;SDS011;65652;53.132;18.026;2023-03-20T06:40:26;57.00;;;26.90;;
76727;SDS011;65652;53.132;18.026;2023-03-20T06:42:53;50.00;;;26.20;;
76727;SDS011;65652;53.132;18.026;2023-03-20T06:45:21;49.40;;;24.80;;
76727;SDS011;65652;53.132;18.026;2023-03-20T06:47:55;48.20;;;25.80;;
76727;SDS011;65652;53.132;18.026;2023-03-20T06:50:22;35.70;;;19.40;;
76727;SDS011;65652;53.132;18.026;2023-03-20T06:52:49;54.50;;;28.40;;
76727;SDS011;65652;53.132;18.026;2023-03-20T06:55:56;53.80;;;25.80;;
76727;SDS011;65652;53.132;18.026;2023-03-20T06:58:23;45.40;;;23.30;;
76727;SDS011;65652;53.132;18.026;2023-03-20T07:00:50;49.00;;;25.50;;
76727;SDS011;65652;53.132;18.026;2023-03-20T07:03:17;37.80;;;19.20;;
76727;SDS011;65652;53.132;18.026;2023-03-20T07:05:46;48.70;;;24.60;;
76727;SDS011;65652;53.132;18.026;2023-03-20T07:08:13;49.80;;;26.20;;
76727;SDS011;65652;53.132;18.026;2023-03-20T07:10:40;53.10;;;28.30;;
76727;SDS011;65652;53.132;18.026;2023-03-20T07:13:07;51.00;;;26.60;;
76727;SDS011;65652;53.132;18.026;2023-03-20T07:15:36;47.50;;;26.00;;
76727;SDS011;65652;53.132;18.026;2023-03-20T07:18:03;42.70;;;23.20;;
76727;SDS011;65652;53.132;18.026;2023-03-20T07:20:31;51.90;;;27.40;;
76727;SDS011;65652;53.132;18.026;2023-03-20T07:22:59;46.70;;;26.10;;
76727;SDS011;65652;53.132;18.026;2023-03-20T07:25:27;35.30;;;20.70;;
76727;SDS011;65652;53.132;18.026;2023-03-20T07:27:55;43.30;;;24.30;;
76727;SDS011;65652;53.132;18.026;2023-03-20T07:30:23;41.60;;;22.50;;
76727;SDS011;65652;53.132;18.026;2023-03-20T07:32:50;47.30;;;25.00;;
76727;SDS011;65652;53.132;18.026;2023-03-20T07:35:18;40.60;;;20.60;;
76727;SDS011;65652;53.132;18.026;2023-03-20T07:37:46;45.80;;;24.20;;
76727;SDS011;65652;53.132;18.026;2023-03-20T07:40:12;39.20;;;21.20;;
76727;SDS011;65652;53.132;18.026;2023-03-20T07:42:53;46.20;;;23.40;;
76727;SDS011;65652;53.132;18.026;2023-03-20T07:45:42;43.90;;;23.90;;
76727;SDS011;65652;53.132;18.026;2023-03-20T07:48:09;44.20;;;23.50;;
76727;SDS011;65652;53.132;18.026;2023-03-20T07:50:36;47.70;;;25.60;;
76727;SDS011;65652;53.132;18.026;2023-03-20T07:53:03;47.10;;;24.70;;
76727;SDS011;65652;53.132;18.026;2023-03-20T07:55:30;42.90;;;24.20;;
76727;SDS011;65652;53.132;18.026;2023-03-20T07:57:57;41.60;;;21.80;;
76727;SDS011;65652;53.132;18.026;2023-03-20T08:00:24;45.70;;;24.80;;
76727;SDS011;65652;53.132;18.026;2023-03-20T08:02:51;40.90;;;23.20;;
76727;SDS011;65652;53.132;18.026;2023-03-20T08:05:18;40.00;;;20.90;;
76727;SDS011;65652;53.132;18.026;2023-03-20T08:07:45;40.80;;;21.90;;
76727;SDS011;65652;53.132;18.026;2023-03-20T08:10:12;40.90;;;23.20;;
76727;SDS011;65652;53.132;18.026;2023-03-20T08:12:39;42.60;;;24.80;;
76727;SDS011;65652;53.132;18.026;2023-03-20T08:15:06;32.40;;;18.40;;
76727;SDS011;65652;53.132;18.026;2023-03-20T08:17:33;42.50;;;24.30;;
76727;SDS011;65652;53.132;18.026;2023-03-20T08:20:00;42.30;;;22.80;;
76727;SDS011;65652;53.132;18.026;2023-03-20T08:22:27;36.10;;;19.40;;
76727;SDS011;65652;53.132;18.026;2023-03-20T08:24:54;34.60;;;18.70;;
76727;SDS011;65652;53.132;18.026;2023-03-20T08:27:21;36.60;;;20.20;;
76727;SDS011;65652;53.132;18.026;2023-03-20T08:29:48;38.40;;;20.70;;
76727;SDS011;65652;53.132;18.026;2023-03-20T08:32:15;36.60;;;19.80;;
76727;SDS011;65652;53.132;18.026;2023-03-20T08:34:42;34.80;;;20.80;;
76727;SDS011;65652;53.132;18.026;2023-03-20T08:37:09;37.80;;;20.30;;
76727;SDS011;65652;53.132;18.026;2023-03-20T08:39:37;36.20;;;20.80;;
76727;SDS011;65652;53.132;18.026;2023-03-20T08:42:05;39.20;;;22.10;;
76727;SDS011;65652;53.132;18.026;2023-03-20T08:44:32;40.20;;;21.40;;
76727;SDS011;65652;53.132;18.026;2023-03-20T08:46:59;29.50;;;17.00;;
76727;SDS011;65652;53.132;18.026;2023-03-20T08:49:26;23.30;;;12.70;;
76727;SDS011;65652;53.132;18.026;2023-03-20T08:51:53;29.00;;;15.50;;
76727;SDS011;65652;53.132;18.026;2023-03-20T08:54:20;28.20;;;16.60;;
76727;SDS011;65652;53.132;18.026;2023-03-20T08:56:47;31.50;;;16.90;;
76727;SDS011;65652;53.132;18.026;2023-03-20T08:59:14;36.30;;;20.90;;
76727;SDS011;65652;53.132;18.026;2023-03-20T09:01:41;26.80;;;15.20;;
76727;SDS011;65652;53.132;18.026;2023-03-20T09:04:08;29.80;;;16.50;;
76727;SDS011;65652;53.132;18.026;2023-03-20T09:06:35;29.10;;;17.10;;
76727;SDS011;65652;53.132;18.026;2023-03-20T09:09:03;28.30;;;16.60;;
76727;SDS011;65652;53.132;18.026;2023-03-20T09:11:30;32.20;;;18.10;;
76727;SDS011;65652;53.132;18.026;2023-03-20T09:13:58;29.70;;;16.90;;
76727;SDS011;65652;53.132;18.026;2023-03-20T09:16:26;27.50;;;17.00;;
76727;SDS011;65652;53.132;18.026;2023-03-20T09:18:54;32.30;;;18.00;;
76727;SDS011;65652;53.132;18.026;2023-03-20T09:21:21;29.80;;;17.10;;
76727;SDS011;65652;53.132;18.026;2023-03-20T09:23:48;25.00;;;13.90;;
76727;SDS011;65652;53.132;18.026;2023-03-20T09:26:15;26.90;;;16.50;;
76727;SDS011;65652;53.132;18.026;2023-03-20T09:28:42;31.00;;;18.50;;
76727;SDS011;65652;53.132;18.026;2023-03-20T09:31:09;32.90;;;17.50;;
76727;SDS011;65652;53.132;18.026;2023-03-20T09:33:37;29.40;;;17.70;;
76727;SDS011;65652;53.132;18.026;2023-03-20T09:36:04;29.50;;;17.70;;
76727;SDS011;65652;53.132;18.026;2023-03-20T09:38:33;31.70;;;18.40;;
76727;SDS011;65652;53.132;18.026;2023-03-20T09:41:00;30.20;;;16.90;;
76727;SDS011;65652;53.132;18.026;2023-03-20T09:48:45;26.20;;;16.70;;
76727;SDS011;65652;53.132;18.026;2023-03-20T09:53:58;31.30;;;19.30;;
76727;SDS011;65652;53.132;18.026;2023-03-20T09:56:30;22.90;;;13.10;;
76727;SDS011;65652;53.132;18.026;2023-03-20T09:58:58;28.40;;;18.30;;
76727;SDS011;65652;53.132;18.026;2023-03-20T10:01:47;26.10;;;14.40;;
76727;SDS011;65652;53.132;18.026;2023-03-20T10:04:22;25.90;;;15.10;;
76727;SDS011;65652;53.132;18.026;2023-03-20T10:06:54;23.00;;;14.00;;
76727;SDS011;65652;53.132;18.026;2023-03-20T10:09:26;23.80;;;14.40;;
76727;SDS011;65652;53.132;18.026;2023-03-20T10:14:52;27.70;;;15.90;;
76727;SDS011;65652;53.132;18.026;2023-03-20T10:23:06;25.00;;;14.00;;
76727;SDS011;65652;53.132;18.026;2023-03-20T10:25:53;25.30;;;15.40;;
76727;SDS011;65652;53.132;18.026;2023-03-20T10:28:33;20.10;;;12.30;;
76727;SDS011;65652;53.132;18.026;2023-03-20T10:31:16;21.60;;;13.50;;
76727;SDS011;65652;53.132;18.026;2023-03-20T10:36:32;23.30;;;13.90;;
76727;SDS011;65652;53.132;18.026;2023-03-20T10:39:05;26.40;;;15.80;;
76727;SDS011;65652;53.132;18.026;2023-03-20T10:41:35;26.50;;;16.70;;
76727;SDS011;65652;53.132;18.026;2023-03-20T10:44:07;23.70;;;13.00;;
76727;SDS011;65652;53.132;18.026;2023-03-20T10:46:41;23.70;;;14.50;;
76727;SDS011;65652;53.132;18.026;2023-03-20T10:49:19;22.80;;;14.10;;
76727;SDS011;65652;53.132;18.026;2023-03-20T10:51:54;18.90;;;11.60;;
76727;SDS011;65652;53.132;18.026;2023-03-20T10:54:26;20.40;;;11.90;;
76727;SDS011;65652;53.132;18.026;2023-03-20T10:56:58;21.50;;;12.20;;
76727;SDS011;65652;53.132;18.026;2023-03-20T10:59:36;18.20;;;10.90;;
76727;SDS011;65652;53.132;18.026;2023-03-20T11:02:08;21.10;;;13.00;;
76727;SDS011;65652;53.132;18.026;2023-03-20T11:04:37;16.10;;;10.40;;
76727;SDS011;65652;53.132;18.026;2023-03-20T11:09:39;18.20;;;11.10;;
76727;SDS011;65652;53.132;18.026;2023-03-20T11:12:13;19.80;;;13.00;;
76727;SDS011;65652;53.132;18.026;2023-03-20T11:14:45;14.40;;;9.20;;
76727;SDS011;65652;53.132;18.026;2023-03-20T11:17:13;18.90;;;11.90;;
76727;SDS011;65652;53.132;18.026;2023-03-20T11:19:42;19.90;;;13.10;;
76727;SDS011;65652;53.132;18.026;2023-03-20T11:22:30;19.30;;;12.30;;
76727;SDS011;65652;53.132;18.026;2023-03-20T11:24:57;15.50;;;10.60;;
76727;SDS011;65652;53.132;18.026;2023-03-20T11:27:30;19.80;;;12.70;;
76727;SDS011;65652;53.132;18.026;2023-03-20T11:30:02;21.50;;;14.20;;
76727;SDS011;65652;53.132;18.026;2023-03-20T11:32:35;20.40;;;12.60;;
76727;SDS011;65652;53.132;18.026;2023-03-20T11:37:53;20.60;;;12.90;;
76727;SDS011;65652;53.132;18.026;2023-03-20T11:40:22;18.60;;;12.10;;
76727;SDS011;65652;53.132;18.026;2023-03-20T11:42:54;18.60;;;11.40;;
76727;SDS011;65652;53.132;18.026;2023-03-20T11:45:43;17.80;;;11.50;;
76727;SDS011;65652;53.132;18.026;2023-03-20T11:48:20;18.30;;;11.80;;
76727;SDS011;65652;53.132;18.026;2023-03-20T11:56:14;18.30;;;10.90;;
76727;SDS011;65652;53.132;18.026;2023-03-20T12:06:55;21.30;;;11.40;;
76727;SDS011;65652;53.132;18.026;2023-03-20T12:09:37;18.10;;;11.00;;
76727;SDS011;65652;53.132;18.026;2023-03-20T12:17:28;12.80;;;8.60;;
76727;SDS011;65652;53.132;18.026;2023-03-20T12:19:57;12.90;;;7.90;;
76727;SDS011;65652;53.132;18.026;2023-03-20T12:25:36;12.50;;;6.90;;
76727;SDS011;65652;53.132;18.026;2023-03-20T12:28:24;13.10;;;8.10;;
76727;SDS011;65652;53.132;18.026;2023-03-20T12:31:21;10.60;;;6.60;;
76727;SDS011;65652;53.132;18.026;2023-03-20T12:36:32;12.30;;;7.40;;
76727;SDS011;65652;53.132;18.026;2023-03-20T12:39:13;12.20;;;7.10;;
76727;SDS011;65652;53.132;18.026;2023-03-20T12:41:48;9.60;;;5.20;;
76727;SDS011;65652;53.132;18.026;2023-03-20T13:00:32;10.70;;;6.10;;
76727;SDS011;65652;53.132;18.026;2023-03-20T13:03:22;8.90;;;4.00;;
76727;SDS011;65652;53.132;18.026;2023-03-20T13:11:30;9.60;;;4.90;;
76727;SDS011;65652;53.132;18.026;2023-03-20T13:26:59;8.90;;;4.70;;
76727;SDS011;65652;53.132;18.026;2023-03-20T13:32:56;11.50;;;5.40;;
76727;SDS011;65652;53.132;18.026;2023-03-20T13:38:29;9.30;;;5.90;;
76727;SDS011;65652;53.132;18.026;2023-03-20T13:41:02;9.90;;;5.70;;
76727;SDS011;65652;53.132;18.026;2023-03-20T13:46:26;7.60;;;4.20;;
76727;SDS011;65652;53.132;18.026;2023-03-20T13:49:01;8.70;;;4.30;;
76727;SDS011;65652;53.132;18.026;2023-03-20T13:51:38;8.40;;;4.70;;
76727;SDS011;65652;53.132;18.026;2023-03-20T14:05:38;8.20;;;4.80;;
76727;SDS011;65652;53.132;18.026;2023-03-20T14:13:44;12.20;;;7.10;;
76727;SDS011;65652;53.132;18.026;2023-03-20T14:16:17;9.80;;;6.30;;
76727;SDS011;65652;53.132;18.026;2023-03-20T14:19:02;12.50;;;6.60;;
76727;SDS011;65652;53.132;18.026;2023-03-20T14:21:32;13.50;;;6.60;;
76727;SDS011;65652;53.132;18.026;2023-03-20T14:24:04;11.40;;;6.40;;
76727;SDS011;65652;53.132;18.026;2023-03-20T14:26:36;9.50;;;5.10;;
76727;SDS011;65652;53.132;18.026;2023-03-20T14:31:37;10.20;;;5.10;;
76727;SDS011;65652;53.132;18.026;2023-03-20T14:34:13;9.80;;;4.60;;
76727;SDS011;65652;53.132;18.026;2023-03-20T14:36:59;9.50;;;4.90;;
76727;SDS011;65652;53.132;18.026;2023-03-20T15:01:02;11.00;;;6.10;;
76727;SDS011;65652;53.132;18.026;2023-03-20T15:03:31;14.20;;;7.50;;
76727;SDS011;65652;53.132;18.026;2023-03-20T15:05:59;14.10;;;7.10;;
76727;SDS011;65652;53.132;18.026;2023-03-20T15:08:32;14.40;;;8.10;;
76727;SDS011;65652;53.132;18.026;2023-03-20T15:11:04;11.90;;;6.40;;
76727;SDS011;65652;53.132;18.026;2023-03-20T15:13:34;15.90;;;8.60;;
76727;SDS011;65652;53.132;18.026;2023-03-20T15:16:04;13.60;;;6.90;;
76727;SDS011;65652;53.132;18.026;2023-03-20T15:18:37;12.60;;;6.40;;
76727;SDS011;65652;53.132;18.026;2023-03-20T15:21:11;13.40;;;7.10;;
76727;SDS011;65652;53.132;18.026;2023-03-20T15:23:44;13.50;;;6.80;;
76727;SDS011;65652;53.132;18.026;2023-03-20T15:26:15;18.80;;;8.90;;
76727;SDS011;65652;53.132;18.026;2023-03-20T15:28:45;15.20;;;8.00;;
76727;SDS011;65652;53.132;18.026;2023-03-20T15:34:00;12.70;;;7.20;;
76727;SDS011;65652;53.132;18.026;2023-03-20T15:36:32;16.30;;;7.90;;
76727;SDS011;65652;53.132;18.026;2023-03-20T15:39:11;12.80;;;6.40;;
76727;SDS011;65652;53.132;18.026;2023-03-20T15:41:44;14.20;;;6.90;;
76727;SDS011;65652;53.132;18.026;2023-03-20T15:49:26;18.10;;;8.60;;
76727;SDS011;65652;53.132;18.026;2023-03-20T15:51:57;16.90;;;8.20;;
76727;SDS011;65652;53.132;18.026;2023-03-20T15:54:28;14.00;;;6.90;;
76727;SDS011;65652;53.132;18.026;2023-03-20T15:56:56;16.00;;;7.00;;
76727;SDS011;65652;53.132;18.026;2023-03-20T15:59:26;13.00;;;5.50;;
76727;SDS011;65652;53.132;18.026;2023-03-20T16:01:58;16.40;;;7.80;;
76727;SDS011;65652;53.132;18.026;2023-03-20T16:04:26;20.90;;;9.20;;
76727;SDS011;65652;53.132;18.026;2023-03-20T16:06:55;18.30;;;7.50;;
76727;SDS011;65652;53.132;18.026;2023-03-20T16:09:24;18.80;;;8.00;;
76727;SDS011;65652;53.132;18.026;2023-03-20T16:11:57;19.30;;;8.40;;
76727;SDS011;65652;53.132;18.026;2023-03-20T16:14:26;26.10;;;10.60;;
76727;SDS011;65652;53.132;18.026;2023-03-20T16:16:55;20.10;;;9.60;;
76727;SDS011;65652;53.132;18.026;2023-03-20T16:19:25;20.10;;;9.20;;
76727;SDS011;65652;53.132;18.026;2023-03-20T16:21:56;18.90;;;7.50;;
76727;SDS011;65652;53.132;18.026;2023-03-20T16:24:33;23.10;;;10.00;;
76727;SDS011;65652;53.132;18.026;2023-03-20T16:27:06;20.70;;;7.70;;
76727;SDS011;65652;53.132;18.026;2023-03-20T16:29:34;23.50;;;9.70;;
76727;SDS011;65652;53.132;18.026;2023-03-20T16:32:06;16.70;;;7.00;;
76727;SDS011;65652;53.132;18.026;2023-03-20T16:34:56;24.10;;;10.70;;
76727;SDS011;65652;53.132;18.026;2023-03-20T16:37:26;18.00;;;8.70;;
76727;SDS011;65652;53.132;18.026;2023-03-20T16:40:28;18.20;;;7.40;;
76727;SDS011;65652;53.132;18.026;2023-03-20T16:43:15;23.50;;;8.90;;
76727;SDS011;65652;53.132;18.026;2023-03-20T16:45:44;24.50;;;11.20;;
76727;SDS011;65652;53.132;18.026;2023-03-20T16:48:19;23.10;;;9.90;;
76727;SDS011;65652;53.132;18.026;2023-03-20T16:50:53;26.70;;;12.20;;
76727;SDS011;65652;53.132;18.026;2023-03-20T16:53:25;24.60;;;10.60;;
76727;SDS011;65652;53.132;18.026;2023-03-20T16:55:54;22.90;;;9.20;;
76727;SDS011;65652;53.132;18.026;2023-03-20T16:58:26;24.50;;;10.50;;
76727;SDS011;65652;53.132;18.026;2023-03-20T17:01:04;25.20;;;10.70;;
76727;SDS011;65652;53.132;18.026;2023-03-20T17:03:35;23.50;;;10.20;;
76727;SDS011;65652;53.132;18.026;2023-03-20T17:08:48;28.10;;;11.30;;
76727;SDS011;65652;53.132;18.026;2023-03-20T17:11:37;22.60;;;9.90;;
76727;SDS011;65652;53.132;18.026;2023-03-20T17:14:04;21.00;;;9.20;;
76727;SDS011;65652;53.132;18.026;2023-03-20T17:16:31;25.80;;;10.50;;
76727;SDS011;65652;53.132;18.026;2023-03-20T17:21:26;26.10;;;11.30;;
76727;SDS011;65652;53.132;18.026;2023-03-20T17:23:53;21.60;;;9.10;;
76727;SDS011;65652;53.132;18.026;2023-03-20T17:26:20;22.50;;;9.90;;
76727;SDS011;65652;53.132;18.026;2023-03-20T17:28:48;17.20;;;7.50;;
76727;SDS011;65652;53.132;18.026;2023-03-20T17:31:16;26.10;;;10.70;;
76727;SDS011;65652;53.132;18.026;2023-03-20T17:36:17;25.70;;;11.50;;
76727;SDS011;65652;53.132;18.026;2023-03-20T17:38:49;35.20;;;14.20;;
76727;SDS011;65652;53.132;18.026;2023-03-20T17:41:17;28.40;;;11.30;;
76727;SDS011;65652;53.132;18.026;2023-03-20T17:43:45;23.40;;;10.20;;
76727;SDS011;65652;53.132;18.026;2023-03-20T17:46:15;21.00;;;9.00;;
76727;SDS011;65652;53.132;18.026;2023-03-20T17:48:42;23.60;;;11.10;;
76727;SDS011;65652;53.132;18.026;2023-03-20T17:51:10;30.80;;;13.80;;
76727;SDS011;65652;53.132;18.026;2023-03-20T17:53:37;24.60;;;10.50;;
76727;SDS011;65652;53.132;18.026;2023-03-20T17:56:08;24.70;;;11.60;;
76727;SDS011;65652;53.132;18.026;2023-03-20T17:58:37;27.50;;;11.80;;
76727;SDS011;65652;53.132;18.026;2023-03-20T18:01:05;28.80;;;12.60;;
76727;SDS011;65652;53.132;18.026;2023-03-20T18:03:32;28.90;;;13.30;;
76727;SDS011;65652;53.132;18.026;2023-03-20T18:05:59;23.60;;;10.70;;
76727;SDS011;65652;53.132;18.026;2023-03-20T18:08:26;27.60;;;11.70;;
76727;SDS011;65652;53.132;18.026;2023-03-20T18:10:53;23.30;;;11.20;;
76727;SDS011;65652;53.132;18.026;2023-03-20T18:13:20;34.30;;;15.70;;
76727;SDS011;65652;53.132;18.026;2023-03-20T18:15:50;36.30;;;14.80;;